Back to Top

Language: 

My Weather Underground Personal Weather Station Historical Data with Graphs...

Delerius Weather Station Historical Data
Daily Summary for December 22, 2017 Units:  English    Metric   Both
« Previous Day
Next Day »
Daily Weekly Monthly Yearly Custom
  High: Low: Average:
Temperature: 55.0 °F 44.8 °F 48.4 °F
Dew Point: 50.4 °F 43.6 °F 46.4 °F
Humidity: 97 % 83 % 93 %
Wind Speed: 14.0 mph 0.0 mph 3.2 mph
Wind Gust: 20.0 mph - -
Wind:- - West
Pressure: 30.57 in 30.48 in -
Precipitation: 0.00 in    
Historical Graphs
 
 
Tabular Data for December 22, 2017
Time Temperature Dew Point Pressure Wind Wind Speed Wind Gust Humidity Rainfall Rate (Hourly) solar Conditions
00:00 48.6 °F 46.6 °F 30.48 in WNW 2.0 mph 6.0 mph 93 % 0.00 in 0 W/m2
00:05 48.6 °F 46.6 °F 30.48 in WNW 2.0 mph 4.0 mph 93 % 0.00 in 0 W/m2
00:10 48.4 °F 46.4 °F 30.48 in WNW 2.0 mph 6.0 mph 93 % 0.00 in 0 W/m2
00:14 48.4 °F 46.4 °F 30.48 in West 3.0 mph 5.0 mph 93 % 0.00 in 0 W/m2
00:16 48.4 °F 46.7 °F 30.48 in West 1.0 mph 4.0 mph 94 % 0.00 in 0 W/m2
00:21 48.4 °F 46.4 °F 30.48 in WNW 1.0 mph 2.0 mph 93 % 0.00 in 0 W/m2
00:22 48.4 °F 46.4 °F 30.48 in WNW 1.0 mph 4.0 mph 93 % 0.00 in 0 W/m2
00:27 48.4 °F 46.4 °F 30.48 in WNW 2.0 mph 5.0 mph 93 % 0.00 in 0 W/m2
00:32 48.2 °F 46.6 °F 30.48 in Calm   2.0 mph 94 % 0.00 in 0 W/m2
00:37 48.2 °F 46.6 °F 30.48 in Calm     94 % 0.00 in 0 W/m2
00:39 48.2 °F 46.3 °F 30.48 in Calm   2.0 mph 93 % 0.00 in 0 W/m2
00:40 48.2 °F 46.3 °F 30.48 in Calm   2.0 mph 93 % 0.00 in 0 W/m2
00:45 48.0 °F 46.1 °F 30.48 in Calm     93 % 0.00 in 0 W/m2
00:48 48.0 °F 46.1 °F 30.48 in Calm   2.0 mph 93 % 0.00 in 0 W/m2
00:51 48.0 °F 46.1 °F 30.48 in WNW 1.0 mph 5.0 mph 93 % 0.00 in 0 W/m2
00:54 47.8 °F 45.9 °F 30.48 in WNW 1.0 mph 3.0 mph 93 % 0.00 in 0 W/m2
00:59 47.8 °F 45.9 °F 30.48 in Calm   4.0 mph 93 % 0.00 in 0 W/m2
01:01 47.7 °F 45.7 °F 30.48 in WNW 1.0 mph 4.0 mph 93 % 0.00 in 0 W/m2
01:06 47.7 °F 45.7 °F 30.48 in WNW 3.0 mph 5.0 mph 93 % 0.00 in 0 W/m2
01:07 47.7 °F 46.0 °F 30.48 in WNW 2.0 mph 5.0 mph 94 % 0.00 in 0 W/m2
01:10 47.7 °F 46.0 °F 30.48 in WSW 4.0 mph 6.0 mph 94 % 0.00 in 0 W/m2
01:14 47.7 °F 46.0 °F 30.48 in WSW 4.0 mph 6.0 mph 94 % 0.00 in 0 W/m2
01:16 47.7 °F 46.0 °F 30.48 in WSW 5.0 mph 6.0 mph 94 % 0.00 in 0 W/m2
01:20 47.7 °F 46.0 °F 30.48 in WSW 5.0 mph 8.0 mph 94 % 0.00 in 0 W/m2
01:21 47.7 °F 46.0 °F 30.48 in West 5.0 mph 8.0 mph 94 % 0.00 in 0 W/m2
01:26 47.7 °F 46.0 °F 30.48 in West 6.0 mph 8.0 mph 94 % 0.00 in 0 W/m2
01:28 47.7 °F 46.0 °F 30.48 in WSW 6.0 mph 10.0 mph 94 % 0.00 in 0 W/m2
01:33 47.7 °F 46.0 °F 30.48 in WSW 7.0 mph 9.0 mph 94 % 0.00 in 0 W/m2
01:37 47.8 °F 46.2 °F 30.48 in West 6.0 mph 9.0 mph 94 % 0.00 in 0 W/m2
01:38 47.8 °F 46.2 °F 30.48 in West 5.0 mph 8.0 mph 94 % 0.00 in 0 W/m2
01:43 47.8 °F 46.2 °F 30.48 in West 4.0 mph 6.0 mph 94 % 0.00 in 0 W/m2
01:44 47.8 °F 46.2 °F 30.48 in West 4.0 mph 6.0 mph 94 % 0.00 in 0 W/m2
01:45 47.8 °F 46.2 °F 30.48 in WNW 3.0 mph 6.0 mph 94 % 0.00 in 0 W/m2
01:50 47.7 °F 46.0 °F 30.48 in WNW 4.0 mph 6.0 mph 94 % 0.00 in 0 W/m2
01:55 47.7 °F 46.0 °F 30.48 in WNW 6.0 mph 8.0 mph 94 % 0.00 in 0 W/m2
01:56 47.7 °F 46.0 °F 30.48 in WNW 6.0 mph 8.0 mph 94 % 0.00 in 0 W/m2
02:00 47.7 °F 46.0 °F 30.48 in WNW 5.0 mph 7.0 mph 94 % 0.00 in 0 W/m2
02:03 47.5 °F 45.8 °F 30.48 in WNW 5.0 mph 7.0 mph 94 % 0.00 in 0 W/m2
02:06 47.5 °F 45.8 °F 30.48 in West 5.0 mph 7.0 mph 94 % 0.00 in 0 W/m2
02:11 47.7 °F 46.0 °F 30.48 in West 6.0 mph 7.0 mph 94 % 0.00 in 0 W/m2
02:12 47.7 °F 46.0 °F 30.48 in West 6.0 mph 8.0 mph 94 % 0.00 in 0 W/m2
02:17 47.7 °F 46.3 °F 30.48 in WNW 6.0 mph 8.0 mph 95 % 0.00 in 0 W/m2
02:19 47.7 °F 46.3 °F 30.48 in WNW 6.0 mph 9.0 mph 95 % 0.00 in 0 W/m2
02:24 47.8 °F 46.5 °F 30.48 in WNW 6.0 mph 8.0 mph 95 % 0.00 in 0 W/m2
02:29 47.8 °F 46.5 °F 30.48 in WNW 6.0 mph 8.0 mph 95 % 0.00 in 0 W/m2
02:34 47.8 °F 46.5 °F 30.48 in WNW 6.0 mph 9.0 mph 95 % 0.00 in 0 W/m2
02:35 47.8 °F 46.5 °F 30.48 in WNW 5.0 mph 8.0 mph 95 % 0.00 in 0 W/m2
02:39 47.8 °F 46.5 °F 30.48 in WNW 5.0 mph 7.0 mph 95 % 0.00 in 0 W/m2
02:42 47.8 °F 46.5 °F 30.48 in WNW 5.0 mph 7.0 mph 95 % 0.00 in 0 W/m2
02:47 47.8 °F 46.5 °F 30.48 in NW 5.0 mph 7.0 mph 95 % 0.00 in 0 W/m2
02:48 47.8 °F 46.5 °F 30.48 in NW 4.0 mph 7.0 mph 95 % 0.00 in 0 W/m2
02:50 47.8 °F 46.5 °F 30.48 in NW 4.0 mph 7.0 mph 95 % 0.00 in 0 W/m2
02:55 47.8 °F 46.5 °F 30.48 in NW 5.0 mph 6.0 mph 95 % 0.00 in 0 W/m2
02:56 47.8 °F 46.5 °F 30.48 in WNW 5.0 mph 7.0 mph 95 % 0.00 in 0 W/m2
02:58 48.0 °F 46.7 °F 30.48 in WNW 5.0 mph 8.0 mph 95 % 0.00 in 0 W/m2
03:02 48.0 °F 46.7 °F 30.48 in WNW 6.0 mph 8.0 mph 95 % 0.00 in 0 W/m2
03:06 48.2 °F 46.8 °F 30.48 in WNW 5.0 mph 9.0 mph 95 % 0.00 in 0 W/m2
03:09 48.2 °F 46.8 °F 30.48 in WNW 6.0 mph 8.0 mph 95 % 0.00 in 0 W/m2
03:14 48.4 °F 47.0 °F 30.48 in WNW 7.0 mph 9.0 mph 95 % 0.00 in 0 W/m2
03:17 48.4 °F 47.0 °F 30.48 in West 7.0 mph 12.0 mph 95 % 0.00 in 0 W/m2
03:22 48.4 °F 47.0 °F 30.48 in West 5.0 mph 8.0 mph 95 % 0.00 in 0 W/m2
03:23 48.4 °F 47.0 °F 30.48 in WNW 5.0 mph 8.0 mph 95 % 0.00 in 0 W/m2
03:28 48.4 °F 47.0 °F 30.48 in WNW 1.0 mph 3.0 mph 95 % 0.00 in 0 W/m2
03:30 48.4 °F 47.0 °F 30.48 in Calm   3.0 mph 95 % 0.00 in 0 W/m2
03:34 48.2 °F 46.8 °F 30.49 in Calm   1.0 mph 95 % 0.00 in 0 W/m2
03:39 48.2 °F 46.8 °F 30.49 in Calm   2.0 mph 95 % 0.00 in 0 W/m2
03:44 48.0 °F 46.7 °F 30.48 in NW 2.0 mph 4.0 mph 95 % 0.00 in 0 W/m2
03:49 47.8 °F 46.2 °F 30.48 in WNW 1.0 mph 3.0 mph 94 % 0.00 in 0 W/m2
03:54 47.7 °F 46.0 °F 30.48 in WNW 4.0 mph 6.0 mph 94 % 0.00 in 0 W/m2
03:55 47.7 °F 46.0 °F 30.48 in WNW 4.0 mph 5.0 mph 94 % 0.00 in 0 W/m2
04:00 47.7 °F 46.3 °F 30.48 in West 5.0 mph 9.0 mph 95 % 0.00 in 0 W/m2
04:01 47.7 °F 46.3 °F 30.48 in West 4.0 mph 8.0 mph 95 % 0.00 in 0 W/m2
04:06 47.7 °F 46.3 °F 30.48 in West 4.0 mph 6.0 mph 95 % 0.00 in 0 W/m2
04:12 47.5 °F 46.1 °F 30.49 in NW 3.0 mph 5.0 mph 95 % 0.00 in 0 W/m2
04:17 47.5 °F 46.1 °F 30.49 in NW 2.0 mph 5.0 mph 95 % 0.00 in 0 W/m2
04:22 47.7 °F 46.3 °F 30.49 in NNW 5.0 mph 7.0 mph 95 % 0.00 in 0 W/m2
04:23 47.7 °F 46.3 °F 30.49 in NW 4.0 mph 7.0 mph 95 % 0.00 in 0 W/m2
04:28 47.7 °F 46.3 °F 30.49 in Calm   2.0 mph 95 % 0.00 in 0 W/m2
04:31 47.7 °F 46.3 °F 30.50 in Calm   1.0 mph 95 % 0.00 in 0 W/m2
04:32 47.7 °F 46.3 °F 30.50 in Calm   1.0 mph 95 % 0.00 in 0 W/m2
04:37 47.7 °F 46.3 °F 30.50 in Calm     95 % 0.00 in 0 W/m2
04:41 47.5 °F 46.1 °F 30.50 in Calm     95 % 0.00 in 0 W/m2
04:46 47.3 °F 45.9 °F 30.50 in Calm     95 % 0.00 in 0 W/m2
04:47 47.1 °F 45.8 °F 30.50 in Calm     95 % 0.00 in 0 W/m2
04:48 47.1 °F 45.8 °F 30.50 in Calm   1.0 mph 95 % 0.00 in 0 W/m2
04:52 46.9 °F 45.6 °F 30.50 in Calm     95 % 0.00 in 0 W/m2
04:57 46.8 °F 45.4 °F 30.50 in Calm     95 % 0.00 in 0 W/m2
04:59 46.8 °F 45.4 °F 30.50 in Calm     95 % 0.00 in 0 W/m2
05:04 46.6 °F 45.2 °F 30.50 in Calm     95 % 0.00 in 0 W/m2
05:05 46.6 °F 45.2 °F 30.50 in Calm     95 % 0.00 in 0 W/m2
05:10 46.4 °F 45.0 °F 30.50 in NW 1.0 mph 2.0 mph 95 % 0.00 in 0 W/m2
05:12 46.6 °F 45.2 °F 30.50 in Calm   2.0 mph 95 % 0.00 in 0 W/m2
05:17 46.6 °F 45.2 °F 30.50 in NW 2.0 mph 3.0 mph 95 % 0.00 in 0 W/m2
05:21 46.6 °F 45.2 °F 30.50 in Calm   1.0 mph 95 % 0.00 in 0 W/m2
05:26 46.6 °F 45.2 °F 30.50 in Calm     95 % 0.00 in 0 W/m2
05:31 46.2 °F 44.9 °F 30.50 in Calm     95 % 0.00 in 0 W/m2
05:33 46.2 °F 44.9 °F 30.50 in Calm     95 % 0.00 in 0 W/m2
05:38 46.0 °F 44.7 °F 30.50 in NW 1.0 mph 2.0 mph 95 % 0.00 in 0 W/m2
05:40 46.0 °F 44.7 °F 30.50 in Calm     95 % 0.00 in 0 W/m2
05:45 46.0 °F 45.0 °F 30.51 in Calm     96 % 0.00 in 0 W/m2
05:50 46.0 °F 45.0 °F 30.51 in Calm     96 % 0.00 in 0 W/m2
05:51 46.0 °F 44.7 °F 30.51 in Calm     95 % 0.00 in 0 W/m2
05:56 45.9 °F 44.8 °F 30.51 in Calm     96 % 0.00 in 0 W/m2
06:01 46.0 °F 45.0 °F 30.51 in Calm     96 % 0.00 in 0 W/m2
06:04 46.0 °F 45.0 °F 30.51 in Calm     96 % 0.00 in 0 W/m2
06:05 46.0 °F 45.0 °F 30.51 in Calm     96 % 0.00 in 0 W/m2
06:11 46.0 °F 45.0 °F 30.51 in Calm     96 % 0.00 in 0 W/m2
06:14 46.2 °F 45.1 °F 30.51 in Calm     96 % 0.00 in 0 W/m2
06:17 46.2 °F 45.1 °F 30.51 in Calm     96 % 0.00 in 0 W/m2
06:22 46.2 °F 45.1 °F 30.50 in Calm     96 % 0.00 in 0 W/m2
06:26 46.2 °F 45.1 °F 30.51 in Calm     96 % 0.00 in 0 W/m2
06:29 46.2 °F 45.1 °F 30.51 in NNW 1.0 mph 2.0 mph 96 % 0.00 in 0 W/m2
06:31 46.2 °F 45.1 °F 30.51 in ENE 1.0 mph 2.0 mph 96 % 0.00 in 0 W/m2
06:36 46.2 °F 45.1 °F 30.51 in ENE 1.0 mph 2.0 mph 96 % 0.00 in 0 W/m2
06:38 46.2 °F 45.1 °F 30.51 in ENE 1.0 mph 2.0 mph 96 % 0.00 in 0 W/m2
06:42 46.2 °F 45.1 °F 30.51 in ENE 1.0 mph 4.0 mph 96 % 0.00 in 0 W/m2
06:44 46.2 °F 45.1 °F 30.51 in ENE 3.0 mph 4.0 mph 96 % 0.00 in 0 W/m2
06:48 46.2 °F 45.1 °F 30.51 in ENE 1.0 mph 3.0 mph 96 % 0.00 in 0 W/m2
06:50 46.2 °F 45.1 °F 30.52 in Calm   1.0 mph 96 % 0.00 in 0 W/m2
06:55 46.0 °F 45.0 °F 30.52 in Calm     96 % 0.00 in 0 W/m2
06:59 46.0 °F 45.0 °F 30.52 in NNE 1.0 mph 2.0 mph 96 % 0.00 in 0 W/m2
07:02 46.0 °F 45.0 °F 30.52 in Calm   1.0 mph 96 % 0.00 in 0 W/m2
07:07 46.2 °F 45.1 °F 30.52 in NNE 1.0 mph 3.0 mph 96 % 0.00 in 0 W/m2
07:08 46.2 °F 45.1 °F 30.52 in Calm   5.0 mph 96 % 0.00 in 0 W/m2
07:11 46.2 °F 45.1 °F 30.52 in NW 2.0 mph 5.0 mph 96 % 0.00 in 0 W/m2
07:15 46.2 °F 45.1 °F 30.52 in Calm     96 % 0.00 in 0 W/m2
07:20 45.9 °F 44.8 °F 30.52 in Calm     96 % 0.00 in 0 W/m2
07:26 45.5 °F 44.4 °F 30.52 in Calm     96 % 0.00 in 0 W/m2
07:30 45.5 °F 44.4 °F 30.53 in NW 1.0 mph 3.0 mph 96 % 0.00 in 0 W/m2
07:31 45.5 °F 44.4 °F 30.53 in Calm   2.0 mph 96 % 0.00 in 0 W/m2
07:36 45.3 °F 44.2 °F 30.53 in Calm   1.0 mph 96 % 0.00 in 0 W/m2
07:41 45.1 °F 44.1 °F 30.53 in Calm     96 % 0.00 in 0 W/m2
07:43 45.1 °F 44.1 °F 30.53 in Calm     96 % 0.00 in 0 W/m2
07:48 45.0 °F 43.9 °F 30.53 in Calm     96 % 0.00 in 0 W/m2
07:52 45.0 °F 43.9 °F 30.53 in Calm   2.0 mph 96 % 0.00 in 0 W/m2
07:54 45.0 °F 43.9 °F 30.53 in NW 1.0 mph 2.0 mph 96 % 0.00 in 0 W/m2
07:58 45.0 °F 43.9 °F 30.53 in Calm     96 % 0.00 in 0 W/m2
08:06 45.1 °F 44.1 °F 30.54 in Calm     96 % 0.00 in 0 W/m2
08:07 45.1 °F 44.1 °F 30.54 in Calm     96 % 0.00 in 0 W/m2
08:12 45.3 °F 44.5 °F 30.54 in Calm     97 % 0.00 in 0 W/m2
08:13 45.3 °F 44.5 °F 30.54 in Calm     97 % 0.00 in 5 W/m2
08:18 45.3 °F 44.5 °F 30.54 in Calm     97 % 0.00 in 5 W/m2
08:19 45.3 °F 44.5 °F 30.54 in Calm     97 % 0.00 in 5 W/m2
08:24 45.3 °F 44.5 °F 30.54 in Calm     97 % 0.00 in 7 W/m2
08:26 45.3 °F 44.5 °F 30.54 in Calm     97 % 0.00 in 9 W/m2
08:31 45.1 °F 44.1 °F 30.55 in Calm     96 % 0.00 in 11 W/m2
08:36 45.0 °F 43.9 °F 30.55 in Calm     96 % 0.00 in 11 W/m2
08:41 45.0 °F 43.9 °F 30.55 in Calm     96 % 0.00 in 11 W/m2
08:42 45.0 °F 43.9 °F 30.55 in Calm     96 % 0.00 in 11 W/m2
08:47 44.8 °F 43.7 °F 30.55 in Calm     96 % 0.00 in 12 W/m2
08:50 45.0 °F 44.2 °F 30.56 in Calm   1.0 mph 97 % 0.00 in 14 W/m2
08:55 45.0 °F 44.2 °F 30.55 in Calm     97 % 0.00 in 16 W/m2
08:58 45.0 °F 44.2 °F 30.55 in Calm     97 % 0.00 in 18 W/m2
09:05 45.0 °F 44.2 °F 30.55 in Calm     97 % 0.00 in 26 W/m2
09:13 45.0 °F 44.2 °F 30.55 in Calm   1.0 mph 97 % 0.00 in 28 W/m2
09:17 45.0 °F 44.2 °F 30.56 in Calm     97 % 0.00 in 33 W/m2
09:22 45.0 °F 44.2 °F 30.56 in Calm   1.0 mph 97 % 0.00 in 44 W/m2
09:24 45.0 °F 44.2 °F 30.56 in Calm   1.0 mph 97 % 0.00 in 40 W/m2
09:25 45.0 °F 44.2 °F 30.56 in Calm     97 % 0.00 in 42 W/m2
09:31 45.1 °F 44.3 °F 30.57 in Calm     97 % 0.00 in 65 W/m2
09:36 45.1 °F 44.3 °F 30.56 in Calm     97 % 0.00 in 76 W/m2
09:38 45.1 °F 44.3 °F 30.56 in Calm     97 % 0.00 in 83 W/m2
09:43 45.3 °F 44.5 °F 30.56 in Calm     97 % 0.00 in 88 W/m2
09:47 45.5 °F 44.7 °F 30.56 in Calm     97 % 0.00 in 109 W/m2
09:52 45.7 °F 44.9 °F 30.56 in Calm     97 % 0.00 in 109 W/m2
09:53 45.7 °F 44.9 °F 30.56 in Calm     97 % 0.00 in 109 W/m2
09:59 46.0 °F 45.2 °F 30.56 in Calm     97 % 0.00 in 113 W/m2
10:01 46.0 °F 45.2 °F 30.56 in Calm     97 % 0.00 in 120 W/m2
10:06 46.4 °F 45.6 °F 30.56 in Calm     97 % 0.00 in 130 W/m2
10:09 46.4 °F 45.6 °F 30.55 in Calm     97 % 0.00 in 137 W/m2
10:10 46.4 °F 45.6 °F 30.55 in Calm     97 % 0.00 in 139 W/m2
10:20 47.1 °F 46.3 °F 30.55 in Calm     97 % 0.00 in 125 W/m2
10:25 47.7 °F 46.9 °F 30.55 in Calm     97 % 0.00 in 128 W/m2
10:29 48.0 °F 47.2 °F 30.55 in Calm     97 % 0.00 in 139 W/m2
10:31 48.2 °F 47.4 °F 30.55 in Calm     97 % 0.00 in 144 W/m2
10:35 48.4 °F 47.6 °F 30.55 in Calm     97 % 0.00 in 160 W/m2
10:38 48.6 °F 47.7 °F 30.55 in Calm     97 % 0.00 in 169 W/m2
10:41 48.9 °F 48.1 °F 30.56 in Calm     97 % 0.00 in 176 W/m2
10:45 49.3 °F 48.5 °F 30.56 in Calm     97 % 0.00 in 186 W/m2
10:47 49.5 °F 48.6 °F 30.56 in Calm     97 % 0.00 in 186 W/m2
10:52 49.8 °F 49.0 °F 30.56 in Calm     97 % 0.00 in 192 W/m2
11:02 50.7 °F 49.9 °F 30.56 in Calm     97 % 0.00 in 183 W/m2
11:11 51.3 °F 50.2 °F 30.57 in Calm     96 % 0.00 in 188 W/m2
11:16 51.3 °F 49.9 °F 30.57 in NW 1.0 mph 2.0 mph 95 % 0.00 in 192 W/m2
11:20 51.4 °F 50.1 °F 30.57 in NW 1.0 mph 2.0 mph 95 % 0.00 in 206 W/m2
11:24 51.4 °F 49.8 °F 30.57 in Calm   3.0 mph 94 % 0.00 in 209 W/m2
11:29 51.6 °F 49.7 °F 30.57 in Calm   1.0 mph 93 % 0.00 in 213 W/m2
11:34 51.6 °F 49.7 °F 30.57 in Calm   2.0 mph 93 % 0.00 in 216 W/m2
11:35 51.8 °F 49.8 °F 30.57 in Calm   2.0 mph 93 % 0.00 in 216 W/m2
11:40 52.2 °F 50.2 °F 30.57 in Calm   2.0 mph 93 % 0.00 in 225 W/m2
11:41 52.2 °F 49.9 °F 30.57 in Calm   2.0 mph 92 % 0.00 in 225 W/m2
11:46 52.3 °F 50.1 °F 30.57 in Calm     92 % 0.00 in 216 W/m2
11:49 52.5 °F 50.0 °F 30.57 in Calm   1.0 mph 91 % 0.00 in 211 W/m2
11:54 52.7 °F 49.8 °F 30.57 in Calm     90 % 0.00 in 227 W/m2
11:55 52.7 °F 49.8 °F 30.57 in NW 1.0 mph 2.0 mph 90 % 0.00 in 223 W/m2
11:58 52.9 °F 49.7 °F 30.56 in WSW 2.0 mph 4.0 mph 89 % 0.00 in 209 W/m2
12:03 52.9 °F 49.7 °F 30.56 in SW 1.0 mph 2.0 mph 89 % 0.00 in 206 W/m2
12:06 52.9 °F 49.4 °F 30.56 in SW 1.0 mph 3.0 mph 88 % 0.00 in 206 W/m2
12:08 52.9 °F 49.4 °F 30.56 in Calm   1.0 mph 88 % 0.00 in 213 W/m2
12:13 52.9 °F 49.4 °F 30.56 in Calm   2.0 mph 88 % 0.00 in 220 W/m2
12:18 53.1 °F 49.6 °F 30.56 in Calm   1.0 mph 88 % 0.00 in 221 W/m2
12:20 53.1 °F 49.6 °F 30.56 in Calm   1.0 mph 88 % 0.00 in 223 W/m2
12:25 53.2 °F 49.8 °F 30.56 in Calm     88 % 0.00 in 218 W/m2
12:30 53.8 °F 50.0 °F 30.56 in Calm     87 % 0.00 in 211 W/m2
12:31 53.8 °F 50.0 °F 30.56 in Calm     87 % 0.00 in 206 W/m2
12:36 54.1 °F 50.4 °F 30.56 in Calm   1.0 mph 87 % 0.00 in 213 W/m2
12:37 54.1 °F 50.0 °F 30.56 in Calm     86 % 0.00 in 221 W/m2
12:41 54.5 °F 50.4 °F 30.56 in SW 1.0 mph 3.0 mph 86 % 0.00 in 225 W/m2
12:46 54.7 °F 49.9 °F 30.56 in SW 2.0 mph 5.0 mph 84 % 0.00 in 211 W/m2
12:47 54.7 °F 49.9 °F 30.56 in SW 3.0 mph 5.0 mph 84 % 0.00 in 214 W/m2
12:52 54.9 °F 50.1 °F 30.56 in WSW 3.0 mph 6.0 mph 84 % 0.00 in 206 W/m2
12:53 54.9 °F 50.1 °F 30.56 in WSW 3.0 mph 5.0 mph 84 % 0.00 in 200 W/m2
12:58 54.9 °F 50.1 °F 30.56 in West 2.0 mph 5.0 mph 84 % 0.00 in 190 W/m2
13:05 55.0 °F 50.0 °F 30.56 in SW 5.0 mph 6.0 mph 83 % 0.00 in 188 W/m2
13:10 54.9 °F 50.1 °F 30.56 in WSW 4.0 mph 7.0 mph 84 % 0.00 in 206 W/m2
13:11 54.7 °F 49.6 °F 30.56 in WSW 6.0 mph 11.0 mph 83 % 0.00 in 204 W/m2
13:16 54.3 °F 49.6 °F 30.56 in West 8.0 mph 11.0 mph 84 % 0.00 in 207 W/m2
13:17 54.3 °F 49.6 °F 30.56 in West 8.0 mph 11.0 mph 84 % 0.00 in 207 W/m2
13:18 54.3 °F 49.6 °F 30.56 in WNW 7.0 mph 11.0 mph 84 % 0.00 in 214 W/m2
13:22 54.0 °F 49.6 °F 30.56 in West 8.0 mph 11.0 mph 85 % 0.00 in 216 W/m2
13:23 54.0 °F 49.6 °F 30.56 in West 9.0 mph 11.0 mph 85 % 0.00 in 221 W/m2
13:28 53.8 °F 49.7 °F 30.56 in West 8.0 mph 13.0 mph 86 % 0.00 in 197 W/m2
13:31 53.8 °F 49.7 °F 30.56 in West 9.0 mph 13.0 mph 86 % 0.00 in 195 W/m2
13:32 53.8 °F 49.7 °F 30.56 in West 9.0 mph 11.0 mph 86 % 0.00 in 209 W/m2
13:37 53.6 °F 49.5 °F 30.56 in West 9.0 mph 11.0 mph 86 % 0.00 in 160 W/m2
13:42 53.2 °F 49.2 °F 30.56 in West 8.0 mph 12.0 mph 86 % 0.00 in 77 W/m2
13:43 53.1 °F 49.0 °F 30.56 in West 9.0 mph 12.0 mph 86 % 0.00 in 81 W/m2
13:45 52.9 °F 49.1 °F 30.56 in West 7.0 mph 10.0 mph 87 % 0.00 in 171 W/m2
13:51 52.9 °F 49.1 °F 30.56 in West 5.0 mph 9.0 mph 87 % 0.00 in 93 W/m2
13:52 52.9 °F 49.1 °F 30.56 in West 5.0 mph 10.0 mph 87 % 0.00 in 81 W/m2
13:57 52.3 °F 48.6 °F 30.56 in West 7.0 mph 10.0 mph 87 % 0.00 in 49 W/m2
14:02 52.2 °F 48.7 °F 30.56 in WSW 5.0 mph 7.0 mph 88 % 0.00 in 40 W/m2
14:03 52.0 °F 48.5 °F 30.56 in WSW 5.0 mph 7.0 mph 88 % 0.00 in 39 W/m2
14:06 52.0 °F 48.5 °F 30.56 in WSW 5.0 mph 8.0 mph 88 % 0.00 in 33 W/m2
14:08 51.8 °F 48.7 °F 30.56 in West 5.0 mph 7.0 mph 89 % 0.00 in 39 W/m2
14:11 51.6 °F 48.5 °F 30.56 in West 4.0 mph 7.0 mph 89 % 0.00 in 44 W/m2
14:14 51.6 °F 48.5 °F 30.56 in West 5.0 mph 7.0 mph 89 % 0.00 in 42 W/m2
14:19 51.4 °F 48.3 °F 30.56 in West 5.0 mph 8.0 mph 89 % 0.00 in 37 W/m2
14:23 51.4 °F 48.3 °F 30.56 in WSW 6.0 mph 8.0 mph 89 % 0.00 in 30 W/m2
14:25 51.3 °F 48.1 °F 30.56 in WSW 5.0 mph 7.0 mph 89 % 0.00 in 26 W/m2
14:30 51.3 °F 48.1 °F 30.56 in WSW 4.0 mph 7.0 mph 89 % 0.00 in 25 W/m2
14:34 51.3 °F 48.1 °F 30.56 in West 5.0 mph 8.0 mph 89 % 0.00 in 23 W/m2
14:38 51.1 °F 48.0 °F 30.56 in WSW 4.0 mph 7.0 mph 89 % 0.00 in 19 W/m2
14:40 51.1 °F 48.2 °F 30.56 in West 3.0 mph 7.0 mph 90 % 0.00 in 18 W/m2
14:45 51.1 °F 48.2 °F 30.56 in West 6.0 mph 11.0 mph 90 % 0.00 in 19 W/m2
14:48 51.1 °F 48.2 °F 30.56 in West 7.0 mph 9.0 mph 90 % 0.00 in 19 W/m2
14:53 51.1 °F 48.2 °F 30.56 in West 5.0 mph 8.0 mph 90 % 0.00 in 18 W/m2
14:55 51.1 °F 48.2 °F 30.56 in West 5.0 mph 7.0 mph 90 % 0.00 in 16 W/m2
15:01 50.9 °F 48.1 °F 30.56 in West 4.0 mph 6.0 mph 90 % 0.00 in 12 W/m2
15:11 50.9 °F 48.1 °F 30.56 in WSW 3.0 mph 6.0 mph 90 % 0.00 in 11 W/m2
15:14 50.7 °F 47.9 °F 30.56 in WSW 3.0 mph 6.0 mph 90 % 0.00 in 9 W/m2
15:19 50.7 °F 47.9 °F 30.56 in WSW 3.0 mph 6.0 mph 90 % 0.00 in 9 W/m2
15:21 50.7 °F 47.9 °F 30.56 in WSW 3.0 mph 5.0 mph 90 % 0.00 in 9 W/m2
15:24 50.7 °F 48.2 °F 30.56 in West 1.0 mph 4.0 mph 91 % 0.00 in 7 W/m2
15:29 50.7 °F 48.2 °F 30.56 in West 2.0 mph 5.0 mph 91 % 0.00 in 7 W/m2
15:30 50.7 °F 48.2 °F 30.56 in West 2.0 mph 5.0 mph 91 % 0.00 in 7 W/m2
15:34 50.7 °F 48.2 °F 30.56 in West 2.0 mph 4.0 mph 91 % 0.00 in 5 W/m2
15:35 50.7 °F 48.2 °F 30.56 in West 2.0 mph 4.0 mph 91 % 0.00 in 5 W/m2
15:40 50.7 °F 48.2 °F 30.57 in West 5.0 mph 6.0 mph 91 % 0.00 in 0 W/m2
15:45 50.5 °F 48.0 °F 30.57 in WSW 2.0 mph 5.0 mph 91 % 0.00 in 0 W/m2
15:47 50.5 °F 48.0 °F 30.57 in West 5.0 mph 9.0 mph 91 % 0.00 in 0 W/m2
15:52 50.5 °F 48.0 °F 30.57 in West 6.0 mph 9.0 mph 91 % 0.00 in 0 W/m2
15:56 50.5 °F 48.0 °F 30.57 in West 5.0 mph 7.0 mph 91 % 0.00 in 0 W/m2
16:01 50.5 °F 48.0 °F 30.57 in West 5.0 mph 8.0 mph 91 % 0.00 in 0 W/m2
16:06 50.5 °F 47.7 °F 30.57 in West 7.0 mph 11.0 mph 90 % 0.00 in 0 W/m2
16:11 50.5 °F 47.7 °F 30.57 in West 8.0 mph 11.0 mph 90 % 0.00 in 0 W/m2
16:12 50.5 °F 47.7 °F 30.57 in West 8.0 mph 11.0 mph 90 % 0.00 in 0 W/m2
16:15 50.4 °F 47.5 °F 30.57 in WNW 5.0 mph 8.0 mph 90 % 0.00 in 0 W/m2
16:20 50.4 °F 47.5 °F 30.56 in West 2.0 mph 5.0 mph 90 % 0.00 in 0 W/m2
16:25 50.4 °F 47.5 °F 30.57 in WNW 3.0 mph 8.0 mph 90 % 0.00 in 0 W/m2
16:28 50.4 °F 47.5 °F 30.57 in West 2.0 mph 6.0 mph 90 % 0.00 in 0 W/m2
16:31 50.4 °F 47.5 °F 30.57 in WNW 4.0 mph 6.0 mph 90 % 0.00 in 0 W/m2
16:34 50.4 °F 47.5 °F 30.57 in West 3.0 mph 7.0 mph 90 % 0.00 in 0 W/m2
16:38 50.4 °F 47.5 °F 30.56 in West 4.0 mph 6.0 mph 90 % 0.00 in 0 W/m2
16:40 50.4 °F 47.5 °F 30.56 in West 5.0 mph 7.0 mph 90 % 0.00 in 0 W/m2
16:43 50.2 °F 47.4 °F 30.56 in WSW 4.0 mph 7.0 mph 90 % 0.00 in 0 W/m2
16:48 50.2 °F 47.4 °F 30.56 in WSW 5.0 mph 7.0 mph 90 % 0.00 in 0 W/m2
16:51 50.2 °F 47.4 °F 30.56 in WSW 4.0 mph 7.0 mph 90 % 0.00 in 0 W/m2
16:55 50.2 °F 47.4 °F 30.56 in West 4.0 mph 7.0 mph 90 % 0.00 in 0 W/m2
16:56 50.2 °F 47.4 °F 30.56 in West 5.0 mph 7.0 mph 90 % 0.00 in 0 W/m2
17:01 50.2 °F 47.4 °F 30.56 in WNW 2.0 mph 5.0 mph 90 % 0.00 in 0 W/m2
17:02 50.2 °F 47.1 °F 30.56 in WNW 2.0 mph 5.0 mph 89 % 0.00 in 0 W/m2
17:05 50.2 °F 47.1 °F 30.56 in WNW 1.0 mph 3.0 mph 89 % 0.00 in 0 W/m2
17:10 49.8 °F 46.7 °F 30.56 in Calm     89 % 0.00 in 0 W/m2
17:11 49.8 °F 46.7 °F 30.56 in Calm     89 % 0.00 in 0 W/m2
17:12 49.8 °F 46.7 °F 30.56 in Calm     89 % 0.00 in 0 W/m2
17:18 49.6 °F 46.5 °F 30.56 in WNW 1.0 mph 2.0 mph 89 % 0.00 in 0 W/m2
17:23 49.3 °F 46.2 °F 30.56 in Calm     89 % 0.00 in 0 W/m2
17:25 49.3 °F 46.2 °F 30.56 in Calm     89 % 0.00 in 0 W/m2
17:30 48.9 °F 45.8 °F 30.56 in Calm     89 % 0.00 in 0 W/m2
17:38 48.4 °F 45.3 °F 30.56 in Calm     89 % 0.00 in 0 W/m2
17:42 48.2 °F 45.4 °F 30.57 in Calm   1.0 mph 90 % 0.00 in 0 W/m2
17:45 48.0 °F 45.2 °F 30.57 in Calm   2.0 mph 90 % 0.00 in 0 W/m2
17:49 47.8 °F 45.0 °F 30.57 in WNW 1.0 mph 4.0 mph 90 % 0.00 in 0 W/m2
17:50 47.7 °F 44.9 °F 30.57 in Calm   2.0 mph 90 % 0.00 in 0 W/m2
17:55 47.5 °F 44.7 °F 30.57 in Calm   1.0 mph 90 % 0.00 in 0 W/m2
18:00 47.1 °F 44.3 °F 30.57 in Calm   2.0 mph 90 % 0.00 in 0 W/m2
18:02 46.9 °F 44.2 °F 30.57 in WNW 2.0 mph 5.0 mph 90 % 0.00 in 0 W/m2
18:07 46.9 °F 44.4 °F 30.57 in West 1.0 mph 4.0 mph 91 % 0.00 in 0 W/m2
18:08 46.8 °F 44.3 °F 30.57 in West 1.0 mph 4.0 mph 91 % 0.00 in 0 W/m2
18:13 46.6 °F 44.1 °F 30.57 in Calm     91 % 0.00 in 0 W/m2
18:23 46.0 °F 43.6 °F 30.57 in Calm   2.0 mph 91 % 0.00 in 0 W/m2
18:27 45.9 °F 43.7 °F 30.57 in WNW 2.0 mph 4.0 mph 92 % 0.00 in 0 W/m2
18:29 45.9 °F 43.7 °F 30.57 in WNW 2.0 mph 4.0 mph 92 % 0.00 in 0 W/m2
18:35 45.9 °F 43.7 °F 30.57 in West 4.0 mph 6.0 mph 92 % 0.00 in 0 W/m2
18:36 45.9 °F 44.0 °F 30.57 in West 4.0 mph 6.0 mph 93 % 0.00 in 0 W/m2
18:41 46.0 °F 44.1 °F 30.57 in WNW 2.0 mph 4.0 mph 93 % 0.00 in 0 W/m2
18:46 46.0 °F 44.1 °F 30.57 in WNW 1.0 mph 3.0 mph 93 % 0.00 in 0 W/m2
18:52 46.0 °F 44.1 °F 30.57 in Calm   1.0 mph 93 % 0.00 in 0 W/m2
18:54 45.9 °F 44.0 °F 30.57 in WNW 3.0 mph 6.0 mph 93 % 0.00 in 0 W/m2
18:59 45.9 °F 44.0 °F 30.57 in WNW 2.0 mph 7.0 mph 93 % 0.00 in 0 W/m2
19:01 45.9 °F 44.0 °F 30.57 in WNW 3.0 mph 7.0 mph 93 % 0.00 in 0 W/m2
19:03 45.9 °F 44.0 °F 30.57 in WNW 2.0 mph 5.0 mph 93 % 0.00 in 0 W/m2
19:08 45.9 °F 44.0 °F 30.57 in WNW 1.0 mph 2.0 mph 93 % 0.00 in 0 W/m2
19:13 45.7 °F 43.8 °F 30.57 in West 1.0 mph 5.0 mph 93 % 0.00 in 0 W/m2
19:22 45.9 °F 44.2 °F 30.57 in West 3.0 mph 7.0 mph 94 % 0.00 in 0 W/m2
19:27 46.9 °F 45.6 °F 30.57 in West 8.0 mph 14.0 mph 95 % 0.00 in 0 W/m2
19:28 47.1 °F 45.8 °F 30.57 in West 7.0 mph 12.0 mph 95 % 0.00 in 0 W/m2
19:32 47.8 °F 46.5 °F 30.57 in West 8.0 mph 13.0 mph 95 % 0.00 in 0 W/m2
19:37 48.4 °F 47.0 °F 30.57 in West 8.0 mph 12.0 mph 95 % 0.00 in 0 W/m2
19:39 48.4 °F 47.0 °F 30.57 in WSW 7.0 mph 10.0 mph 95 % 0.00 in 0 W/m2
19:44 48.6 °F 46.9 °F 30.57 in West 10.0 mph 14.0 mph 94 % 0.00 in 0 W/m2
19:45 48.6 °F 46.9 °F 30.57 in West 11.0 mph 14.0 mph 94 % 0.00 in 0 W/m2
19:47 48.7 °F 47.1 °F 30.57 in West 9.0 mph 14.0 mph 94 % 0.00 in 0 W/m2
19:52 48.7 °F 46.8 °F 30.57 in West 6.0 mph 8.0 mph 93 % 0.00 in 0 W/m2
19:53 48.7 °F 46.8 °F 30.57 in WSW 6.0 mph 10.0 mph 93 % 0.00 in 0 W/m2
19:58 48.7 °F 46.8 °F 30.57 in WSW 10.0 mph 15.0 mph 93 % 0.00 in 0 W/m2
19:59 48.7 °F 46.8 °F 30.57 in WSW 10.0 mph 15.0 mph 93 % 0.00 in 0 W/m2
20:04 48.7 °F 46.8 °F 30.57 in West 7.0 mph 11.0 mph 93 % 0.00 in 0 W/m2
20:05 48.9 °F 47.0 °F 30.57 in WSW 7.0 mph 11.0 mph 93 % 0.00 in 0 W/m2
20:10 48.9 °F 47.0 °F 30.57 in WSW 8.0 mph 12.0 mph 93 % 0.00 in 0 W/m2
20:14 48.9 °F 47.0 °F 30.57 in West 9.0 mph 14.0 mph 93 % 0.00 in 0 W/m2
20:19 48.9 °F 47.0 °F 30.56 in WSW 5.0 mph 10.0 mph 93 % 0.00 in 0 W/m2
20:22 48.9 °F 47.0 °F 30.56 in WSW 4.0 mph 9.0 mph 93 % 0.00 in 0 W/m2
20:27 48.7 °F 46.8 °F 30.56 in West 8.0 mph 12.0 mph 93 % 0.00 in 0 W/m2
20:30 48.7 °F 46.8 °F 30.56 in West 6.0 mph 9.0 mph 93 % 0.00 in 0 W/m2
20:33 48.7 °F 46.8 °F 30.56 in WSW 6.0 mph 9.0 mph 93 % 0.00 in 0 W/m2
20:38 48.7 °F 46.8 °F 30.56 in West 4.0 mph 7.0 mph 93 % 0.00 in 0 W/m2
20:43 48.7 °F 46.8 °F 30.56 in West 6.0 mph 8.0 mph 93 % 0.00 in 0 W/m2
20:44 48.7 °F 46.8 °F 30.56 in West 5.0 mph 8.0 mph 93 % 0.00 in 0 W/m2
20:49 48.7 °F 46.8 °F 30.57 in West 5.0 mph 8.0 mph 93 % 0.00 in 0 W/m2
20:51 48.7 °F 46.8 °F 30.56 in West 5.0 mph 7.0 mph 93 % 0.00 in 0 W/m2
20:56 48.7 °F 46.8 °F 30.56 in WNW 6.0 mph 11.0 mph 93 % 0.00 in 0 W/m2
20:57 48.6 °F 46.6 °F 30.56 in West 8.0 mph 16.0 mph 93 % 0.00 in 0 W/m2
21:02 48.6 °F 46.6 °F 30.56 in WNW 10.0 mph 14.0 mph 93 % 0.00 in 0 W/m2
21:07 48.4 °F 46.4 °F 30.56 in West 12.0 mph 16.0 mph 93 % 0.00 in 0 W/m2
21:08 48.4 °F 46.4 °F 30.56 in West 11.0 mph 15.0 mph 93 % 0.00 in 0 W/m2
21:14 48.4 °F 46.4 °F 30.56 in West 8.0 mph 12.0 mph 93 % 0.00 in 0 W/m2
21:15 48.4 °F 46.4 °F 30.56 in West 10.0 mph 18.0 mph 93 % 0.00 in 0 W/m2
21:20 48.2 °F 46.3 °F 30.56 in West 8.0 mph 13.0 mph 93 % 0.00 in 0 W/m2
21:23 48.2 °F 46.3 °F 30.56 in West 8.0 mph 13.0 mph 93 % 0.00 in 0 W/m2
21:28 48.0 °F 46.1 °F 30.55 in WSW 10.0 mph 13.0 mph 93 % 0.00 in 0 W/m2
21:32 48.0 °F 46.1 °F 30.55 in West 8.0 mph 13.0 mph 93 % 0.00 in 0 W/m2
21:33 48.0 °F 46.1 °F 30.55 in West 9.0 mph 13.0 mph 93 % 0.00 in 0 W/m2
21:38 47.8 °F 45.9 °F 30.55 in West 7.0 mph 10.0 mph 93 % 0.00 in 0 W/m2
21:41 47.8 °F 45.9 °F 30.55 in West 8.0 mph 12.0 mph 93 % 0.00 in 0 W/m2
21:46 47.8 °F 45.9 °F 30.55 in West 9.0 mph 13.0 mph 93 % 0.00 in 0 W/m2
21:47 47.7 °F 45.7 °F 30.55 in West 9.0 mph 13.0 mph 93 % 0.00 in 0 W/m2
21:51 47.7 °F 45.7 °F 30.55 in West 10.0 mph 13.0 mph 93 % 0.00 in 0 W/m2
21:53 47.7 °F 45.7 °F 30.55 in West 8.0 mph 12.0 mph 93 % 0.00 in 0 W/m2
22:00 47.5 °F 45.6 °F 30.55 in West 9.0 mph 13.0 mph 93 % 0.00 in 0 W/m2
22:05 47.5 °F 45.6 °F 30.55 in WSW 14.0 mph 20.0 mph 93 % 0.00 in 0 W/m2
22:07 47.5 °F 45.6 °F 30.55 in WSW 12.0 mph 20.0 mph 93 % 0.00 in 0 W/m2
22:14 47.5 °F 45.6 °F 30.55 in West 8.0 mph 13.0 mph 93 % 0.00 in 0 W/m2
22:19 47.5 °F 45.6 °F 30.55 in WSW 9.0 mph 12.0 mph 93 % 0.00 in 0 W/m2
22:21 47.5 °F 45.6 °F 30.54 in WSW 7.0 mph 11.0 mph 93 % 0.00 in 0 W/m2
22:22 47.5 °F 45.6 °F 30.55 in WSW 7.0 mph 11.0 mph 93 % 0.00 in 0 W/m2
22:27 47.5 °F 45.6 °F 30.55 in WSW 7.0 mph 11.0 mph 93 % 0.00 in 0 W/m2
22:32 47.5 °F 45.6 °F 30.54 in West 8.0 mph 11.0 mph 93 % 0.00 in 0 W/m2
22:33 47.5 °F 45.6 °F 30.54 in WSW 8.0 mph 11.0 mph 93 % 0.00 in 0 W/m2
22:34 47.5 °F 45.6 °F 30.54 in WSW 9.0 mph 11.0 mph 93 % 0.00 in 0 W/m2
22:39 47.5 °F 45.3 °F 30.54 in West 8.0 mph 12.0 mph 92 % 0.00 in 0 W/m2
22:46 47.5 °F 45.3 °F 30.54 in West 7.0 mph 11.0 mph 92 % 0.00 in 0 W/m2
22:51 47.3 °F 45.1 °F 30.54 in West 6.0 mph 10.0 mph 92 % 0.00 in 0 W/m2
22:52 47.3 °F 45.1 °F 30.54 in West 5.0 mph 8.0 mph 92 % 0.00 in 0 W/m2
22:58 47.1 °F 44.9 °F 30.54 in West 5.0 mph 8.0 mph 92 % 0.00 in 0 W/m2
23:02 46.9 °F 44.7 °F 30.53 in West 3.0 mph 6.0 mph 92 % 0.00 in 0 W/m2
23:03 46.9 °F 44.7 °F 30.53 in West 2.0 mph 6.0 mph 92 % 0.00 in 0 W/m2
23:08 46.8 °F 44.6 °F 30.53 in WNW 6.0 mph 9.0 mph 92 % 0.00 in 0 W/m2
23:11 46.8 °F 44.8 °F 30.53 in WNW 7.0 mph 10.0 mph 93 % 0.00 in 0 W/m2
23:16 46.8 °F 44.8 °F 30.53 in WNW 7.0 mph 9.0 mph 93 % 0.00 in 0 W/m2
23:18 46.8 °F 44.8 °F 30.53 in WNW 7.0 mph 9.0 mph 93 % 0.00 in 0 W/m2
23:23 46.8 °F 44.8 °F 30.53 in WNW 5.0 mph 8.0 mph 93 % 0.00 in 0 W/m2
23:27 46.8 °F 44.8 °F 30.53 in West 3.0 mph 7.0 mph 93 % 0.00 in 0 W/m2
23:32 46.6 °F 44.7 °F 30.53 in West 7.0 mph 12.0 mph 93 % 0.00 in 0 W/m2
23:33 46.6 °F 44.7 °F 30.53 in West 7.0 mph 12.0 mph 93 % 0.00 in 0 W/m2
23:38 46.8 °F 44.8 °F 30.53 in West 6.0 mph 10.0 mph 93 % 0.00 in 0 W/m2
23:39 46.8 °F 44.8 °F 30.53 in West 6.0 mph 10.0 mph 93 % 0.00 in 0 W/m2
23:44 46.9 °F 45.0 °F 30.53 in West 5.0 mph 8.0 mph 93 % 0.00 in 0 W/m2
23:48 46.9 °F 45.0 °F 30.52 in West 6.0 mph 8.0 mph 93 % 0.00 in 0 W/m2
23:53 46.9 °F 45.0 °F 30.52 in WNW 5.0 mph 6.0 mph 93 % 0.00 in 0 W/m2
23:54 46.9 °F 45.0 °F 30.52 in WNW 5.0 mph 8.0 mph 93 % 0.00 in 0 W/m2
23:59 46.9 °F 45.0 °F 30.52 in WNW 6.0 mph 8.0 mph 93 % 0.00 in 0 W/m2
Delerius-Weather
Compliments of Weather Underground - 3 mb

Data updates at regular intervals.